createdAt,value
2023-02-16T00:01:49.194Z,77.28
2023-02-16T00:04:29.833Z,77.46
2023-02-16T00:06:58.081Z,78.15
2023-02-16T00:09:26.871Z,78.89
2023-02-16T00:12:14.185Z,79.37
2023-02-16T00:14:45.440Z,79.88
2023-02-16T00:17:14.287Z,80.08
2023-02-16T00:19:43.234Z,78.63
2023-02-16T00:22:11.590Z,77.68
2023-02-16T00:24:39.881Z,77.39
2023-02-16T00:27:13.172Z,77.49
2023-02-16T00:29:42.173Z,78.11
2023-02-16T00:32:11.652Z,78.64
2023-02-16T00:34:41.373Z,79.33
2023-02-16T00:37:13.337Z,79.64
2023-02-16T00:39:44.025Z,79.40
2023-02-16T00:42:24.397Z,79.89
2023-02-16T00:44:54.256Z,78.77
2023-02-16T00:47:33.202Z,78.21
2023-02-16T00:50:01.864Z,78.21
2023-02-16T00:52:37.226Z,78.69
2023-02-16T00:55:11.154Z,78.60
2023-02-16T00:57:55.394Z,78.92
2023-02-16T01:00:29.120Z,78.85
2023-02-16T01:02:59.378Z,79.20
2023-02-16T01:05:28.163Z,79.27
2023-02-16T01:08:18.056Z,79.56
2023-02-16T01:11:06.374Z,78.40
2023-02-16T01:13:45.303Z,77.81
2023-02-16T01:16:19.402Z,77.74
2023-02-16T01:18:47.870Z,78.39
2023-02-16T01:21:16.388Z,78.49
2023-02-16T01:23:44.778Z,79.02
2023-02-16T01:26:16.134Z,79.53
2023-02-16T01:28:47.981Z,79.81
2023-02-16T01:31:17.999Z,80.10
2023-02-16T01:33:46.610Z,79.15
2023-02-16T01:36:29.911Z,78.31
2023-02-16T01:38:58.085Z,77.95
2023-02-16T01:41:41.639Z,78.38
2023-02-16T01:44:15.763Z,78.74
2023-02-16T01:46:51.990Z,78.88
2023-02-16T01:49:20.981Z,79.36
2023-02-16T01:52:23.884Z,79.72
2023-02-16T01:55:01.063Z,79.58
2023-02-16T01:57:46.678Z,79.16
2023-02-16T02:00:22.849Z,77.96
2023-02-16T02:03:15.956Z,77.60
2023-02-16T02:05:44.442Z,77.72
2023-02-16T02:08:25.528Z,77.98
2023-02-16T02:11:14.880Z,78.33
2023-02-16T02:13:58.311Z,79.36
2023-02-16T02:16:27.373Z,79.65
2023-02-16T02:18:56.500Z,80.06
2023-02-16T02:22:02.460Z,80.33
2023-02-16T02:25:04.895Z,80.54
2023-02-16T02:27:38.965Z,79.90
2023-02-16T02:30:13.433Z,79.75
2023-02-16T02:32:57.311Z,80.87
2023-02-16T02:35:26.208Z,81.29
2023-02-16T02:37:57.035Z,81.86
2023-02-16T02:40:37.742Z,81.22
2023-02-16T02:43:52.311Z,81.03
2023-02-16T02:46:29.463Z,81.17
2023-02-16T02:48:58.289Z,81.38
2023-02-16T02:51:29.643Z,79.86
2023-02-16T02:54:23.070Z,79.46
2023-02-16T02:57:17.219Z,80.03
2023-02-16T03:00:12.138Z,80.02
2023-02-16T03:02:40.717Z,80.07
2023-02-16T03:05:09.947Z,80.33
2023-02-16T03:07:47.537Z,81.22
2023-02-16T03:10:47.535Z,82.17
2023-02-16T03:13:23.405Z,83.28
2023-02-16T03:15:56.046Z,82.76
2023-02-16T03:18:44.200Z,81.57
2023-02-16T03:21:33.576Z,80.83
2023-02-16T03:24:22.020Z,80.60
2023-02-16T03:27:09.429Z,81.09
2023-02-16T03:29:38.449Z,81.84
2023-02-16T03:32:07.063Z,82.44
2023-02-16T03:34:36.115Z,82.13
2023-02-16T03:37:05.140Z,82.72
2023-02-16T03:39:53.559Z,82.58
2023-02-16T03:42:22.647Z,81.25
2023-02-16T03:44:51.848Z,80.14
2023-02-16T03:47:20.038Z,79.64
2023-02-16T03:49:48.600Z,79.93
2023-02-16T03:52:16.779Z,80.47
2023-02-16T03:54:44.993Z,80.87
2023-02-16T03:57:13.330Z,81.26
2023-02-16T03:59:41.539Z,81.41
2023-02-16T04:02:09.947Z,81.89
2023-02-16T04:04:38.462Z,80.88
2023-02-16T04:07:06.866Z,80.16
2023-02-16T04:09:35.119Z,80.04
2023-02-16T04:12:26.688Z,80.09
2023-02-16T04:14:55.221Z,80.56
2023-02-16T04:17:23.402Z,81.11
2023-02-16T04:19:52.089Z,81.61
2023-02-16T04:22:21.687Z,81.96
2023-02-16T04:24:50.106Z,82.25
2023-02-16T04:27:18.343Z,82.28
2023-02-16T04:29:46.616Z,81.45
2023-02-16T04:32:15.181Z,80.08
2023-02-16T04:34:43.802Z,80.40
2023-02-16T04:37:12.678Z,80.56
2023-02-16T04:39:41.888Z,80.70
2023-02-16T04:42:10.598Z,81.10
2023-02-16T04:44:38.985Z,81.63
2023-02-16T04:47:07.524Z,82.45
2023-02-16T04:49:35.788Z,83.20
2023-02-16T04:52:04.760Z,82.47
2023-02-16T04:54:34.399Z,81.16
2023-02-16T04:57:02.764Z,80.85
2023-02-16T04:59:31.067Z,81.12
2023-02-16T05:01:59.446Z,81.08
2023-02-16T05:04:29.353Z,81.67
2023-02-16T05:06:57.941Z,82.32
2023-02-16T05:09:26.502Z,82.65
2023-02-16T05:12:13.845Z,82.84
2023-02-16T05:14:42.549Z,81.95
2023-02-16T05:17:24.826Z,82.66
2023-02-16T05:19:55.490Z,83.60
2023-02-16T05:22:24.033Z,84.01
2023-02-16T05:24:52.506Z,84.16
2023-02-16T05:27:23.121Z,84.99
2023-02-16T05:29:51.579Z,85.97
2023-02-16T05:32:20.780Z,85.75
2023-02-16T05:34:49.236Z,84.62
2023-02-16T05:37:18.651Z,83.98
2023-02-16T05:39:47.034Z,83.72
2023-02-16T05:42:17.303Z,83.89
2023-02-16T05:44:45.479Z,84.34
2023-02-16T05:47:13.962Z,84.69
2023-02-16T05:49:42.643Z,84.35
2023-02-16T05:52:11.131Z,82.82
2023-02-16T05:54:39.646Z,82.47
2023-02-16T05:57:12.918Z,83.14
2023-02-16T05:59:41.693Z,83.94
2023-02-16T06:02:10.215Z,84.31
2023-02-16T06:04:39.378Z,83.87
2023-02-16T06:07:07.555Z,82.58
2023-02-16T06:09:35.957Z,82.94
2023-02-16T06:12:08.406Z,83.55
2023-02-16T06:14:37.492Z,84.34
2023-02-16T06:17:05.800Z,85.08
2023-02-16T06:19:38.461Z,84.31
2023-02-16T06:22:07.233Z,82.42
2023-02-16T06:24:35.557Z,81.85
2023-02-16T06:27:04.295Z,81.77
2023-02-16T06:29:32.874Z,82.13
2023-02-16T06:32:01.285Z,82.34
2023-02-16T06:34:30.143Z,82.59
2023-02-16T06:36:58.422Z,82.19
2023-02-16T06:39:27.018Z,80.67
2023-02-16T06:41:55.275Z,80.06
2023-02-16T06:44:23.522Z,80.15
2023-02-16T06:46:51.918Z,80.42
2023-02-16T06:49:21.037Z,80.89
2023-02-16T06:51:49.669Z,81.29
2023-02-16T06:54:18.431Z,82.07
2023-02-16T06:56:46.793Z,81.81
2023-02-16T06:59:15.361Z,79.94
2023-02-16T07:01:45.429Z,78.10
2023-02-16T07:04:15.399Z,78.12
2023-02-16T07:06:43.751Z,78.43
2023-02-16T07:16:51.740Z,81.03
2023-02-16T07:19:20.411Z,79.34
2023-02-16T07:21:49.340Z,76.49
2023-02-16T07:24:18.292Z,75.98
2023-02-16T07:26:46.872Z,75.01
2023-02-16T07:29:15.661Z,75.38
2023-02-16T07:31:44.331Z,75.97
2023-02-16T07:34:13.041Z,76.55
2023-02-16T07:36:41.421Z,76.31
2023-02-16T07:39:09.682Z,75.41
2023-02-16T07:41:38.102Z,75.05
2023-02-16T07:44:09.011Z,75.13
2023-02-16T07:46:38.297Z,75.31
2023-02-16T07:49:06.627Z,75.41
2023-02-16T07:51:36.081Z,74.71
2023-02-16T07:54:04.351Z,74.84
2023-02-16T07:56:34.022Z,74.83
2023-02-16T07:59:03.062Z,74.96
2023-02-16T08:01:32.455Z,74.32
2023-02-16T08:04:00.966Z,74.24
2023-02-16T08:06:29.826Z,71.91
2023-02-16T08:08:58.616Z,71.51
2023-02-16T08:11:28.145Z,71.76
2023-02-16T08:13:59.171Z,71.77
2023-02-16T08:16:28.421Z,70.80
2023-02-16T08:18:59.090Z,70.33
2023-02-16T08:21:29.082Z,68.71
2023-02-16T08:24:02.719Z,68.47
2023-02-16T08:26:50.145Z,67.82
2023-02-16T08:29:18.880Z,67.64
2023-02-16T08:31:48.205Z,66.32
2023-02-16T08:34:17.675Z,65.02
2023-02-16T08:36:47.650Z,65.59
2023-02-16T08:39:17.740Z,64.80
2023-02-16T08:41:47.788Z,64.29
2023-02-16T08:44:17.386Z,63.09
2023-02-16T08:46:48.878Z,62.75
2023-02-16T08:49:18.846Z,61.95
2023-02-16T08:51:49.181Z,61.80
2023-02-16T08:54:25.852Z,61.99
2023-02-16T08:56:55.864Z,60.66
2023-02-16T08:59:27.248Z,60.61
2023-02-16T09:01:58.519Z,60.92
2023-02-16T09:04:31.212Z,60.67
2023-02-16T09:07:00.039Z,60.21
2023-02-16T09:09:29.033Z,60.48
2023-02-16T09:11:58.299Z,60.52
2023-02-16T09:14:28.149Z,59.61
2023-02-16T09:16:58.323Z,58.67
2023-02-16T09:19:28.718Z,59.17
2023-02-16T09:21:57.260Z,58.62
2023-02-16T09:24:27.759Z,57.63
2023-02-16T09:26:56.182Z,57.36
2023-02-16T09:29:24.652Z,56.52
2023-02-16T09:31:54.814Z,56.98
2023-02-16T09:34:27.453Z,55.78
2023-02-16T09:36:56.764Z,54.95
2023-02-16T09:39:25.754Z,55.09
2023-02-16T09:42:21.504Z,54.67
2023-02-16T09:45:06.355Z,54.45
2023-02-16T09:47:37.358Z,53.93
2023-02-16T09:50:27.712Z,52.65
2023-02-16T09:53:14.028Z,51.13
2023-02-16T09:56:04.527Z,51.53
2023-02-16T09:58:45.545Z,50.32
2023-02-16T10:01:13.872Z,48.03
2023-02-16T10:04:01.132Z,48.53
2023-02-16T10:06:43.054Z,47.60
2023-02-16T10:09:13.563Z,47.47
2023-02-16T10:11:49.637Z,47.95
2023-02-16T10:14:33.759Z,49.28
2023-02-16T10:17:28.507Z,48.12
2023-02-16T10:20:11.686Z,46.47
2023-02-16T10:22:40.173Z,46.51
2023-02-16T10:25:14.516Z,46.97
2023-02-16T10:27:44.293Z,46.28
2023-02-16T10:30:21.086Z,44.91
2023-02-16T10:32:56.801Z,44.14
2023-02-16T10:35:41.091Z,44.65
2023-02-16T10:38:48.979Z,45.50
2023-02-16T10:41:26.361Z,45.91
2023-02-16T10:44:03.397Z,45.73
2023-02-16T10:46:37.024Z,46.09
2023-02-16T10:49:05.432Z,46.29
2023-02-16T10:51:36.887Z,46.50
2023-02-16T10:54:08.521Z,45.84
2023-02-16T10:56:54.425Z,46.32
2023-02-16T10:59:23.648Z,45.90
2023-02-16T11:02:01.686Z,46.22
2023-02-16T11:04:35.899Z,46.27
2023-02-16T11:07:25.530Z,46.11
2023-02-16T11:10:01.084Z,46.20
2023-02-16T11:12:38.582Z,46.43
2023-02-16T11:15:19.165Z,45.28
2023-02-16T11:17:52.948Z,44.09
2023-02-16T11:20:46.843Z,44.11
2023-02-16T11:23:42.543Z,44.22
2023-02-16T11:26:10.742Z,45.07
2023-02-16T11:28:44.271Z,44.83
2023-02-16T11:31:14.470Z,45.81
2023-02-16T11:33:43.767Z,44.98
2023-02-16T11:36:42.369Z,45.26
2023-02-16T11:39:14.077Z,44.74
2023-02-16T11:41:53.412Z,45.44
2023-02-16T11:44:33.872Z,46.00
2023-02-16T11:47:04.950Z,46.00
2023-02-16T11:49:40.432Z,45.41
2023-02-16T11:52:23.599Z,45.54
2023-02-16T11:54:55.040Z,46.14
2023-02-16T11:57:31.980Z,46.88
2023-02-16T12:00:01.197Z,46.88
2023-02-16T12:03:08.736Z,46.25
2023-02-16T12:05:43.966Z,47.63
2023-02-16T12:08:25.370Z,47.87
2023-02-16T12:11:07.386Z,48.80
2023-02-16T12:13:48.801Z,48.92
2023-02-16T12:16:45.221Z,49.31
2023-02-16T12:19:30.520Z,49.67
2023-02-16T12:22:11.076Z,49.82
2023-02-16T12:25:10.801Z,50.19
2023-02-16T12:27:47.172Z,49.56
2023-02-16T12:30:28.663Z,49.82
2023-02-16T12:33:10.748Z,50.29
2023-02-16T12:36:12.809Z,50.44
2023-02-16T12:38:54.012Z,51.15
2023-02-16T12:41:46.834Z,50.81
2023-02-16T12:44:42.970Z,50.96
2023-02-16T12:47:14.792Z,50.34
2023-02-16T12:50:01.708Z,50.08
2023-02-16T12:53:07.396Z,50.64
2023-02-16T12:55:49.168Z,50.54
2023-02-16T12:58:21.665Z,50.82
2023-02-16T13:00:52.739Z,51.22
2023-02-16T13:03:35.174Z,51.41
2023-02-16T13:06:30.116Z,51.58
2023-02-16T13:08:59.313Z,51.70
2023-02-16T13:11:55.754Z,51.45
2023-02-16T13:14:27.556Z,51.81
2023-02-16T13:17:02.167Z,51.48
2023-02-16T13:19:31.135Z,51.62
2023-02-16T13:21:59.300Z,51.73
2023-02-16T13:24:51.315Z,51.46
2023-02-16T13:27:36.028Z,52.17
2023-02-16T13:30:36.606Z,52.84
2023-02-16T13:33:24.694Z,53.14
2023-02-16T13:36:15.184Z,53.19
2023-02-16T13:39:22.260Z,53.42
2023-02-16T13:41:52.299Z,53.46
2023-02-16T13:44:47.163Z,53.66
2023-02-16T13:47:18.197Z,53.79
2023-02-16T13:49:50.682Z,53.96
2023-02-16T13:52:31.200Z,53.68
2023-02-16T13:55:06.549Z,54.29
2023-02-16T13:57:50.733Z,54.44
2023-02-16T14:00:29.453Z,54.94
2023-02-16T14:03:00.395Z,55.54
2023-02-16T14:05:37.162Z,55.94
2023-02-16T14:08:19.796Z,56.17
2023-02-16T14:10:53.714Z,56.30
2023-02-16T14:13:45.513Z,56.09
2023-02-16T14:16:17.436Z,56.20
2023-02-16T14:18:54.008Z,56.62
2023-02-16T14:21:33.277Z,57.21
2023-02-16T14:24:03.394Z,57.49
2023-02-16T14:26:55.359Z,57.55
2023-02-16T14:29:36.441Z,57.86
2023-02-16T14:32:16.696Z,57.91
2023-02-16T14:35:08.393Z,58.21
2023-02-16T14:38:01.241Z,58.28
2023-02-16T14:40:36.080Z,58.14
2023-02-16T14:43:06.765Z,58.37
2023-02-16T14:45:54.043Z,58.24
2023-02-16T14:48:32.751Z,58.60
2023-02-16T14:51:34.832Z,58.75
2023-02-16T14:54:06.062Z,58.42
2023-02-16T14:56:42.117Z,58.26
2023-02-16T14:59:37.940Z,58.33
2023-02-16T15:02:39.921Z,58.65
2023-02-16T15:05:17.863Z,58.88
2023-02-16T15:07:48.335Z,58.66
2023-02-16T15:10:27.469Z,58.96
2023-02-16T15:12:56.396Z,59.15
2023-02-16T15:15:45.240Z,59.41
2023-02-16T15:18:23.290Z,59.83
2023-02-16T15:20:53.285Z,60.13
2023-02-16T15:23:34.583Z,60.49
2023-02-16T15:26:09.389Z,60.55
2023-02-16T15:28:39.465Z,60.92
2023-02-16T15:31:11.274Z,61.53
2023-02-16T15:33:43.403Z,61.79
2023-02-16T15:36:24.485Z,62.25
2023-02-16T15:38:52.848Z,62.69
2023-02-16T15:41:30.264Z,62.87
2023-02-16T15:43:59.093Z,62.93
2023-02-16T15:46:31.104Z,63.26
2023-02-16T15:49:00.490Z,63.98
2023-02-16T15:51:31.717Z,64.71
2023-02-16T15:54:08.311Z,65.05
2023-02-16T15:56:47.557Z,65.21
2023-02-16T15:59:37.833Z,66.10
2023-02-16T16:02:21.297Z,66.57
2023-02-16T16:04:55.738Z,66.74
2023-02-16T16:07:29.608Z,67.73
2023-02-16T16:09:58.129Z,68.06
2023-02-16T16:12:26.700Z,66.99
2023-02-16T16:14:57.606Z,65.35
2023-02-16T16:17:34.530Z,65.40
2023-02-16T16:20:22.339Z,65.39
2023-02-16T16:23:17.109Z,66.50
2023-02-16T16:25:47.226Z,66.85
2023-02-16T16:28:36.892Z,67.32
2023-02-16T16:31:14.258Z,68.01
2023-02-16T16:34:39.501Z,68.13
2023-02-16T16:37:25.307Z,68.65
2023-02-16T16:40:20.988Z,69.67
2023-02-16T16:43:14.823Z,69.81
2023-02-16T16:45:44.848Z,69.11
2023-02-16T16:48:21.963Z,67.58
2023-02-16T16:50:50.286Z,67.53
2023-02-16T16:53:31.126Z,68.00
2023-02-16T16:56:01.856Z,68.95
2023-02-16T16:58:31.298Z,69.52
2023-02-16T17:01:02.355Z,69.58
2023-02-16T17:03:31.453Z,70.43
2023-02-16T17:06:00.190Z,70.84
2023-02-16T17:08:28.582Z,71.23
2023-02-16T17:11:02.476Z,71.20
2023-02-16T17:13:32.896Z,70.59
2023-02-16T17:16:03.439Z,69.28
2023-02-16T17:18:32.525Z,68.96
2023-02-16T17:21:01.214Z,69.13
2023-02-16T17:23:30.809Z,69.44
2023-02-16T17:25:59.202Z,70.08
2023-02-16T17:28:29.003Z,70.86
2023-02-16T17:30:57.608Z,71.12
2023-02-16T17:33:26.368Z,71.87
2023-02-16T17:35:54.856Z,72.15
2023-02-16T17:38:24.172Z,71.54
2023-02-16T17:40:54.472Z,70.21
2023-02-16T17:43:23.572Z,69.94
2023-02-16T17:45:53.931Z,70.40
2023-02-16T17:48:30.545Z,71.10
2023-02-16T17:50:59.353Z,71.84
2023-02-16T17:53:28.070Z,72.75
2023-02-16T17:55:57.347Z,73.14
2023-02-16T17:58:28.687Z,73.50
2023-02-16T18:00:57.444Z,73.57
2023-02-16T18:03:25.956Z,72.31
2023-02-16T18:05:55.462Z,70.97
2023-02-16T18:08:25.280Z,70.90
2023-02-16T18:11:04.116Z,71.42
2023-02-16T18:13:32.577Z,71.71
2023-02-16T18:16:07.398Z,72.12
2023-02-16T18:18:39.460Z,73.76
2023-02-16T18:21:11.369Z,73.81
2023-02-16T18:23:40.638Z,73.06
2023-02-16T18:26:09.316Z,71.81
2023-02-16T18:28:48.844Z,71.42
2023-02-16T18:31:23.332Z,71.33
2023-02-16T18:33:51.868Z,71.50
2023-02-16T18:36:20.450Z,71.67
2023-02-16T18:38:48.947Z,72.41
2023-02-16T18:41:18.030Z,72.83
2023-02-16T18:43:50.097Z,73.50
2023-02-16T18:46:18.921Z,73.59
2023-02-16T18:48:54.119Z,72.17
2023-02-16T18:51:26.186Z,71.28
2023-02-16T18:53:58.878Z,71.61
2023-02-16T18:56:29.237Z,72.24
2023-02-16T18:58:57.871Z,72.70
2023-02-16T19:01:33.856Z,73.11
2023-02-16T19:04:03.507Z,74.03
2023-02-16T19:06:32.228Z,74.46
2023-02-16T19:09:00.710Z,74.27
2023-02-16T19:11:31.643Z,72.59
2023-02-16T19:14:04.539Z,71.61
2023-02-16T19:16:34.752Z,71.67
2023-02-16T19:19:04.248Z,72.02
2023-02-16T19:21:47.486Z,72.62
2023-02-16T19:24:16.771Z,73.19
2023-02-16T19:26:46.491Z,73.84
2023-02-16T19:29:17.426Z,74.13
2023-02-16T19:31:47.996Z,74.20
2023-02-16T19:34:17.254Z,72.85
2023-02-16T19:36:45.617Z,72.11
2023-02-16T19:39:14.436Z,72.08
2023-02-16T19:41:46.685Z,72.31
2023-02-16T19:44:15.167Z,73.06
2023-02-16T19:46:43.674Z,73.44
2023-02-16T19:49:13.596Z,73.73
2023-02-16T19:51:42.655Z,74.08
2023-02-16T19:54:11.243Z,74.99
2023-02-16T19:56:40.851Z,74.93
2023-02-16T19:59:15.668Z,73.30
2023-02-16T20:01:44.685Z,72.43
2023-02-16T20:04:13.245Z,72.07
2023-02-16T20:06:42.648Z,72.67
2023-02-16T20:09:13.837Z,72.95
2023-02-16T20:11:42.986Z,73.29
2023-02-16T20:14:12.306Z,73.61
2023-02-16T20:16:47.268Z,74.19
2023-02-16T20:19:19.203Z,74.78
2023-02-16T20:21:47.667Z,74.82
2023-02-16T20:24:16.607Z,73.33
2023-02-16T20:26:46.180Z,72.47
2023-02-16T20:29:17.820Z,72.53
2023-02-16T20:31:50.496Z,72.72
2023-02-16T20:34:19.428Z,73.52
2023-02-16T20:36:49.406Z,74.49
2023-02-16T20:39:17.904Z,75.18
2023-02-16T20:41:46.394Z,76.09
2023-02-16T20:44:14.956Z,76.54
2023-02-16T20:46:43.420Z,75.85
2023-02-16T20:49:13.629Z,73.63
2023-02-16T20:51:42.338Z,72.54
2023-02-16T20:54:11.130Z,72.64
2023-02-16T20:56:40.138Z,73.25
2023-02-16T20:59:11.053Z,73.93
2023-02-16T21:01:46.408Z,74.53
2023-02-16T21:04:18.063Z,75.21
2023-02-16T21:06:49.295Z,75.68
2023-02-16T21:09:18.101Z,76.16
2023-02-16T21:11:47.210Z,75.77
2023-02-16T21:14:15.658Z,73.52
2023-02-16T21:16:44.343Z,72.43
2023-02-16T21:19:22.475Z,72.39
2023-02-16T21:21:53.114Z,73.33
2023-02-16T21:24:21.766Z,74.04
2023-02-16T21:26:50.043Z,74.85
2023-02-16T21:29:18.635Z,75.67
2023-02-16T21:31:47.565Z,76.14
2023-02-16T21:34:16.246Z,76.58
2023-02-16T21:36:45.100Z,76.03
2023-02-16T21:39:13.788Z,73.95
2023-02-16T21:41:43.014Z,72.94
2023-02-16T21:44:14.482Z,72.96
2023-02-16T21:46:44.649Z,73.60
2023-02-16T21:49:19.854Z,74.63
2023-02-16T21:51:48.805Z,75.30
2023-02-16T21:54:39.181Z,75.87
2023-02-16T21:57:07.489Z,77.11
2023-02-16T21:59:35.955Z,77.78
2023-02-16T22:02:04.584Z,76.60
2023-02-16T22:04:35.666Z,74.88
2023-02-16T22:07:04.444Z,74.49
2023-02-16T22:09:34.207Z,74.90
2023-02-16T22:12:02.744Z,75.75
2023-02-16T22:14:33.468Z,76.28
2023-02-16T22:17:04.552Z,76.95
2023-02-16T22:19:34.232Z,77.44
2023-02-16T22:22:02.906Z,77.30
2023-02-16T22:24:31.430Z,75.53
2023-02-16T22:26:59.766Z,74.71
2023-02-16T22:29:28.245Z,74.94
2023-02-16T22:31:56.801Z,75.41
2023-02-16T22:34:25.415Z,75.98
2023-02-16T22:36:54.193Z,76.75
2023-02-16T22:39:22.906Z,77.24
2023-02-16T22:41:51.419Z,75.87
2023-02-16T22:44:19.720Z,74.38
2023-02-16T22:46:48.337Z,74.04
2023-02-16T22:49:16.499Z,74.64
2023-02-16T22:51:46.151Z,75.46
2023-02-16T22:54:16.853Z,76.14
2023-02-16T22:56:45.674Z,76.83
2023-02-16T22:59:13.944Z,76.73
2023-02-16T23:01:42.389Z,74.72
2023-02-16T23:04:14.727Z,74.08
2023-02-16T23:06:45.387Z,74.66
2023-02-16T23:09:17.037Z,75.54
2023-02-16T23:11:45.938Z,76.01
2023-02-16T23:14:17.277Z,77.06
2023-02-16T23:16:47.357Z,77.61
2023-02-16T23:19:19.161Z,76.78
2023-02-16T23:21:47.642Z,75.61
2023-02-16T23:24:18.319Z,75.70
2023-02-16T23:26:46.750Z,75.48
2023-02-16T23:29:15.862Z,76.15
2023-02-16T23:31:46.816Z,76.86
2023-02-16T23:34:15.471Z,77.93
2023-02-16T23:36:45.388Z,78.31
2023-02-16T23:39:15.645Z,76.72
2023-02-16T23:41:43.983Z,75.37
2023-02-16T23:44:13.161Z,74.92
2023-02-16T23:46:41.668Z,75.72
2023-02-16T23:49:10.990Z,76.59
2023-02-16T23:51:39.582Z,77.04
2023-02-16T23:54:11.123Z,77.70
2023-02-16T23:56:39.465Z,77.87
2023-02-16T23:59:08.451Z,76.48
